sensor_id;sensor_type;location;lat;lon;timestamp;pressure;altitude;pressure_sealevel;temperature;humidity
24160;BME280;62385;41.594;23.808;2023-02-04T00:01:49;95446.31;;;-0.22;67.05
24160;BME280;62385;41.594;23.808;2023-02-04T00:04:15;95438.81;;;-0.26;66.38
24160;BME280;62385;41.594;23.808;2023-02-04T00:06:41;95426.06;;;-0.18;66.83
24160;BME280;62385;41.594;23.808;2023-02-04T00:09:07;95425.81;;;-0.03;66.14
24160;BME280;62385;41.594;23.808;2023-02-04T00:11:33;95416.25;;;-0.15;67.32
24160;BME280;62385;41.594;23.808;2023-02-04T00:13:58;95421.03;;;0.04;66.73
24160;BME280;62385;41.594;23.808;2023-02-04T00:16:24;95425.41;;;0.04;66.83
24160;BME280;62385;41.594;23.808;2023-02-04T00:18:50;95415.13;;;0.13;66.80
24160;BME280;62385;41.594;23.808;2023-02-04T00:21:15;95413.06;;;-0.31;66.09
24160;BME280;62385;41.594;23.808;2023-02-04T00:23:41;95413.91;;;-0.43;66.92
24160;BME280;62385;41.594;23.808;2023-02-04T00:26:07;95401.06;;;-0.21;67.07
24160;BME280;62385;41.594;23.808;2023-02-04T00:28:32;95410.91;;;-0.01;67.18
24160;BME280;62385;41.594;23.808;2023-02-04T00:30:59;95413.72;;;-0.04;66.10
24160;BME280;62385;41.594;23.808;2023-02-04T00:33:24;95405.78;;;-0.02;65.27
24160;BME280;62385;41.594;23.808;2023-02-04T00:35:50;95408.31;;;-0.13;67.05
24160;BME280;62385;41.594;23.808;2023-02-04T00:38:16;95409.06;;;-0.24;68.59
24160;BME280;62385;41.594;23.808;2023-02-04T00:40:41;95399.75;;;-0.15;68.05
24160;BME280;62385;41.594;23.808;2023-02-04T00:43:07;95394.00;;;-0.08;67.05
24160;BME280;62385;41.594;23.808;2023-02-04T00:45:32;95395.94;;;0.02;66.65
24160;BME280;62385;41.594;23.808;2023-02-04T00:47:58;95394.84;;;0.17;67.31
24160;BME280;62385;41.594;23.808;2023-02-04T00:50:25;95395.03;;;0.26;67.03
24160;BME280;62385;41.594;23.808;2023-02-04T00:52:50;95384.72;;;0.25;66.66
24160;BME280;62385;41.594;23.808;2023-02-04T00:55:17;95384.59;;;0.03;67.97
24160;BME280;62385;41.594;23.808;2023-02-04T00:57:43;95381.56;;;-0.04;69.80
24160;BME280;62385;41.594;23.808;2023-02-04T01:00:12;95372.75;;;0.10;70.21
24160;BME280;62385;41.594;23.808;2023-02-04T01:02:38;95349.25;;;-0.14;70.43
24160;BME280;62385;41.594;23.808;2023-02-04T01:05:06;95349.53;;;-0.06;70.34
24160;BME280;62385;41.594;23.808;2023-02-04T01:07:32;95351.69;;;-0.24;69.92
24160;BME280;62385;41.594;23.808;2023-02-04T01:09:58;95344.19;;;-0.28;69.59
24160;BME280;62385;41.594;23.808;2023-02-04T01:12:23;95355.38;;;-0.39;69.24
24160;BME280;62385;41.594;23.808;2023-02-04T01:14:52;95357.59;;;-0.09;68.58
24160;BME280;62385;41.594;23.808;2023-02-04T01:17:18;95350.84;;;0.12;68.52
24160;BME280;62385;41.594;23.808;2023-02-04T01:19:45;95343.34;;;0.08;68.22
24160;BME280;62385;41.594;23.808;2023-02-04T01:22:11;95341.66;;;-0.17;68.20
24160;BME280;62385;41.594;23.808;2023-02-04T01:24:36;95333.16;;;-0.08;67.80
24160;BME280;62385;41.594;23.808;2023-02-04T01:27:20;95322.72;;;0.16;67.90
24160;BME280;62385;41.594;23.808;2023-02-04T01:29:46;95322.19;;;-0.01;68.20
24160;BME280;62385;41.594;23.808;2023-02-04T01:32:11;95320.22;;;-0.10;69.10
24160;BME280;62385;41.594;23.808;2023-02-04T01:34:37;95317.97;;;-0.14;68.91
24160;BME280;62385;41.594;23.808;2023-02-04T01:37:02;95326.84;;;-0.17;68.03
24160;BME280;62385;41.594;23.808;2023-02-04T01:39:29;95314.84;;;-0.19;69.22
24160;BME280;62385;41.594;23.808;2023-02-04T01:41:55;95314.84;;;-0.19;69.51
24160;BME280;62385;41.594;23.808;2023-02-04T01:44:22;95309.84;;;-0.22;69.88
24160;BME280;62385;41.594;23.808;2023-02-04T01:46:48;95296.34;;;-0.16;69.57
24160;BME280;62385;41.594;23.808;2023-02-04T01:49:13;95298.41;;;-0.32;68.80
24160;BME280;62385;41.594;23.808;2023-02-04T01:51:39;95299.66;;;-0.25;68.67
24160;BME280;62385;41.594;23.808;2023-02-04T01:54:09;95289.34;;;-0.16;69.02
24160;BME280;62385;41.594;23.808;2023-02-04T01:56:36;95284.88;;;-0.14;69.58
24160;BME280;62385;41.594;23.808;2023-02-04T01:59:08;95291.53;;;-0.10;69.99
24160;BME280;62385;41.594;23.808;2023-02-04T02:01:37;95283.47;;;-0.07;70.69
24160;BME280;62385;41.594;23.808;2023-02-04T02:04:12;95271.06;;;-0.27;72.11
24160;BME280;62385;41.594;23.808;2023-02-04T02:06:41;95268.81;;;-0.20;72.25
24160;BME280;62385;41.594;23.808;2023-02-04T02:09:08;95261.72;;;-0.18;72.97
24160;BME280;62385;41.594;23.808;2023-02-04T02:11:34;95275.53;;;-0.29;73.15
24160;BME280;62385;41.594;23.808;2023-02-04T02:14:01;95278.38;;;-0.32;73.29
24160;BME280;62385;41.594;23.808;2023-02-04T02:16:28;95275.66;;;-0.30;73.02
24160;BME280;62385;41.594;23.808;2023-02-04T02:18:53;95281.84;;;-0.44;73.47
24160;BME280;62385;41.594;23.808;2023-02-04T02:21:29;95267.28;;;-0.47;73.61
24160;BME280;62385;41.594;23.808;2023-02-04T02:23:56;95270.16;;;-0.62;73.20
24160;BME280;62385;41.594;23.808;2023-02-04T02:26:23;95270.75;;;-0.59;73.58
24160;BME280;62385;41.594;23.808;2023-02-04T02:28:50;95266.81;;;-0.64;73.44
24160;BME280;62385;41.594;23.808;2023-02-04T02:31:18;95274.34;;;-0.72;73.35
24160;BME280;62385;41.594;23.808;2023-02-04T02:33:44;95269.69;;;-0.56;72.70
24160;BME280;62385;41.594;23.808;2023-02-04T02:36:10;95259.94;;;-0.78;73.29
24160;BME280;62385;41.594;23.808;2023-02-04T02:38:36;95251.53;;;-0.81;73.26
24160;BME280;62385;41.594;23.808;2023-02-04T02:41:03;95261.13;;;-0.95;73.44
24160;BME280;62385;41.594;23.808;2023-02-04T02:43:30;95251.16;;;-1.01;73.55
24160;BME280;62385;41.594;23.808;2023-02-04T02:45:57;95248.78;;;-1.04;73.34
24160;BME280;62385;41.594;23.808;2023-02-04T02:48:24;95248.44;;;-0.99;73.08
24160;BME280;62385;41.594;23.808;2023-02-04T02:50:51;95230.94;;;-0.97;73.16
24160;BME280;62385;41.594;23.808;2023-02-04T02:53:19;95220.19;;;-0.93;73.24
24160;BME280;62385;41.594;23.808;2023-02-04T02:55:47;95203.94;;;-0.96;73.31
24160;BME280;62385;41.594;23.808;2023-02-04T02:58:22;95198.78;;;-1.09;73.46
24160;BME280;62385;41.594;23.808;2023-02-04T03:00:49;95209.75;;;-1.29;73.82
24160;BME280;62385;41.594;23.808;2023-02-04T03:03:22;95207.53;;;-1.22;73.65
24160;BME280;62385;41.594;23.808;2023-02-04T03:05:54;95204.84;;;-1.21;73.37
24160;BME280;62385;41.594;23.808;2023-02-04T03:08:22;95194.56;;;-1.48;73.57
24160;BME280;62385;41.594;23.808;2023-02-04T03:10:48;95197.47;;;-1.65;73.49
24160;BME280;62385;41.594;23.808;2023-02-04T03:13:16;95187.19;;;-1.54;73.01
24160;BME280;62385;41.594;23.808;2023-02-04T03:15:43;95193.22;;;-1.66;72.91
24160;BME280;62385;41.594;23.808;2023-02-04T03:18:28;95171.34;;;-1.63;72.00
24160;BME280;62385;41.594;23.808;2023-02-04T03:20:55;95173.13;;;-1.64;71.53
24160;BME280;62385;41.594;23.808;2023-02-04T03:23:23;95183.28;;;-1.35;71.30
24160;BME280;62385;41.594;23.808;2023-02-04T03:25:49;95191.53;;;-0.93;71.42
24160;BME280;62385;41.594;23.808;2023-02-04T03:28:16;95185.59;;;-0.95;71.35
24160;BME280;62385;41.594;23.808;2023-02-04T03:30:42;95189.25;;;-0.73;71.11
24160;BME280;62385;41.594;23.808;2023-02-04T03:33:08;95195.09;;;-1.06;72.34
24160;BME280;62385;41.594;23.808;2023-02-04T03:35:35;95189.91;;;-1.19;73.13
24160;BME280;62385;41.594;23.808;2023-02-04T03:38:00;95177.75;;;-1.31;74.51
24160;BME280;62385;41.594;23.808;2023-02-04T03:40:26;95185.22;;;-1.14;74.87
24160;BME280;62385;41.594;23.808;2023-02-04T03:42:51;95181.72;;;-1.25;74.57
24160;BME280;62385;41.594;23.808;2023-02-04T03:45:18;95166.81;;;-1.36;74.61
24160;BME280;62385;41.594;23.808;2023-02-04T03:47:44;95165.91;;;-1.48;74.08
24160;BME280;62385;41.594;23.808;2023-02-04T03:50:11;95149.59;;;-1.62;73.16
24160;BME280;62385;41.594;23.808;2023-02-04T03:52:38;95159.03;;;-1.49;73.63
24160;BME280;62385;41.594;23.808;2023-02-04T03:55:04;95159.34;;;-1.53;72.96
24160;BME280;62385;41.594;23.808;2023-02-04T03:57:30;95165.63;;;-1.56;73.50
24160;BME280;62385;41.594;23.808;2023-02-04T03:59:57;95150.28;;;-1.48;73.62
24160;BME280;62385;41.594;23.808;2023-02-04T04:02:22;95147.81;;;-1.49;73.75
24160;BME280;62385;41.594;23.808;2023-02-04T04:04:48;95150.94;;;-1.69;74.33
24160;BME280;62385;41.594;23.808;2023-02-04T04:07:13;95151.69;;;-1.67;74.38
24160;BME280;62385;41.594;23.808;2023-02-04T04:09:39;95142.44;;;-1.71;74.12
24160;BME280;62385;41.594;23.808;2023-02-04T04:12:05;95143.25;;;-2.09;73.17
24160;BME280;62385;41.594;23.808;2023-02-04T04:14:31;95130.78;;;-2.29;73.90
24160;BME280;62385;41.594;23.808;2023-02-04T04:16:56;95133.78;;;-2.35;73.78
24160;BME280;62385;41.594;23.808;2023-02-04T04:19:23;95133.06;;;-2.37;73.81
24160;BME280;62385;41.594;23.808;2023-02-04T04:21:49;95143.78;;;-2.29;73.78
24160;BME280;62385;41.594;23.808;2023-02-04T04:24:14;95137.97;;;-2.20;73.17
24160;BME280;62385;41.594;23.808;2023-02-04T04:26:40;95138.38;;;-2.13;72.82
24160;BME280;62385;41.594;23.808;2023-02-04T04:29:05;95143.06;;;-2.06;73.15
24160;BME280;62385;41.594;23.808;2023-02-04T04:31:32;95134.84;;;-1.87;73.26
24160;BME280;62385;41.594;23.808;2023-02-04T04:33:59;95145.22;;;-2.38;73.54
24160;BME280;62385;41.594;23.808;2023-02-04T04:36:26;95155.41;;;-2.35;74.27
24160;BME280;62385;41.594;23.808;2023-02-04T04:38:53;95165.63;;;-1.94;72.81
24160;BME280;62385;41.594;23.808;2023-02-04T04:41:18;95163.03;;;-2.06;72.26
24160;BME280;62385;41.594;23.808;2023-02-04T04:43:45;95176.31;;;-2.36;73.01
24160;BME280;62385;41.594;23.808;2023-02-04T04:46:10;95165.91;;;-2.36;73.09
24160;BME280;62385;41.594;23.808;2023-02-04T04:48:36;95166.38;;;-2.04;72.47
24160;BME280;62385;41.594;23.808;2023-02-04T04:51:01;95155.41;;;-2.35;72.68
24160;BME280;62385;41.594;23.808;2023-02-04T04:53:28;95145.34;;;-2.14;72.47
24160;BME280;62385;41.594;23.808;2023-02-04T04:55:53;95142.63;;;-2.38;73.23
24160;BME280;62385;41.594;23.808;2023-02-04T04:58:19;95136.38;;;-2.35;73.17
24160;BME280;62385;41.594;23.808;2023-02-04T05:00:44;95140.34;;;-2.04;72.50
24160;BME280;62385;41.594;23.808;2023-02-04T05:03:10;95149.59;;;-1.62;70.74
24160;BME280;62385;41.594;23.808;2023-02-04T05:05:35;95143.59;;;-1.88;71.84
24160;BME280;62385;41.594;23.808;2023-02-04T05:08:08;95129.84;;;-1.90;72.56
24160;BME280;62385;41.594;23.808;2023-02-04T05:10:38;95122.03;;;-1.77;71.95
24160;BME280;62385;41.594;23.808;2023-02-04T05:13:04;95124.13;;;-2.20;72.59
24160;BME280;62385;41.594;23.808;2023-02-04T05:15:30;95105.44;;;-2.65;73.18
24160;BME280;62385;41.594;23.808;2023-02-04T05:17:55;95110.53;;;-2.63;73.67
24160;BME280;62385;41.594;23.808;2023-02-04T05:20:24;95105.09;;;-2.34;72.65
24160;BME280;62385;41.594;23.808;2023-02-04T05:22:49;95120.16;;;-2.13;71.43
24160;BME280;62385;41.594;23.808;2023-02-04T05:25:15;95116.50;;;-1.86;70.75
24160;BME280;62385;41.594;23.808;2023-02-04T05:27:44;95114.03;;;-1.87;71.53
24160;BME280;62385;41.594;23.808;2023-02-04T05:30:11;95115.19;;;-2.04;72.71
24160;BME280;62385;41.594;23.808;2023-02-04T05:32:37;95116.81;;;-1.90;72.72
24160;BME280;62385;41.594;23.808;2023-02-04T05:35:04;95118.19;;;-2.10;72.79
24160;BME280;62385;41.594;23.808;2023-02-04T05:37:30;95122.44;;;-2.34;72.48
24160;BME280;62385;41.594;23.808;2023-02-04T05:39:57;95115.81;;;-2.25;71.91
24160;BME280;62385;41.594;23.808;2023-02-04T05:42:23;95113.19;;;-2.38;72.24
24160;BME280;62385;41.594;23.808;2023-02-04T05:44:49;95119.44;;;-2.41;72.70
24160;BME280;62385;41.594;23.808;2023-02-04T05:47:15;95125.28;;;-2.24;72.80
24160;BME280;62385;41.594;23.808;2023-02-04T05:49:40;95130.25;;;-1.96;72.37
24160;BME280;62385;41.594;23.808;2023-02-04T05:52:06;95116.81;;;-2.03;72.52
24160;BME280;62385;41.594;23.808;2023-02-04T05:54:33;95114.03;;;-1.74;71.18
24160;BME280;62385;41.594;23.808;2023-02-04T05:56:58;95111.00;;;-1.94;71.43
24160;BME280;62385;41.594;23.808;2023-02-04T05:59:24;95117.41;;;-1.61;71.37
24160;BME280;62385;41.594;23.808;2023-02-04T06:01:49;95132.66;;;-1.80;71.15
24160;BME280;62385;41.594;23.808;2023-02-04T06:04:15;95119.41;;;-1.65;71.04
24160;BME280;62385;41.594;23.808;2023-02-04T06:06:41;95136.88;;;-1.42;71.37
24160;BME280;62385;41.594;23.808;2023-02-04T06:09:07;95131.72;;;-1.30;70.39
24160;BME280;62385;41.594;23.808;2023-02-04T06:11:33;95109.19;;;-1.55;72.98
24160;BME280;62385;41.594;23.808;2023-02-04T06:13:58;95166.66;;;-1.58;72.71
24160;BME280;62385;41.594;23.808;2023-02-04T06:16:24;95113.66;;;-1.57;74.11
24160;BME280;62385;41.594;23.808;2023-02-04T06:18:51;95111.41;;;-1.62;74.83
24160;BME280;62385;41.594;23.808;2023-02-04T06:21:17;95136.53;;;-1.24;73.74
24160;BME280;62385;41.594;23.808;2023-02-04T06:23:42;95112.66;;;-1.31;74.14
24160;BME280;62385;41.594;23.808;2023-02-04T06:26:08;95105.47;;;-1.27;74.17
24160;BME280;62385;41.594;23.808;2023-02-04T06:28:35;95114.91;;;-0.90;72.69
24160;BME280;62385;41.594;23.808;2023-02-04T06:31:00;95131.50;;;-0.67;72.35
24160;BME280;62385;41.594;23.808;2023-02-04T06:33:26;95125.50;;;-0.46;72.69
24160;BME280;62385;41.594;23.808;2023-02-04T06:35:51;95116.31;;;-0.38;72.24
24160;BME280;62385;41.594;23.808;2023-02-04T06:38:18;95121.91;;;-0.32;71.74
24160;BME280;62385;41.594;23.808;2023-02-04T06:40:44;95104.63;;;-0.22;70.58
24160;BME280;62385;41.594;23.808;2023-02-04T06:43:14;95106.28;;;-0.21;70.46
24160;BME280;62385;41.594;23.808;2023-02-04T06:45:40;95112.28;;;-0.42;70.59
24160;BME280;62385;41.594;23.808;2023-02-04T06:48:06;95101.94;;;-0.09;70.68
24160;BME280;62385;41.594;23.808;2023-02-04T06:50:31;95102.22;;;-0.25;70.13
24160;BME280;62385;41.594;23.808;2023-02-04T06:52:57;95096.97;;;-0.01;70.19
24160;BME280;62385;41.594;23.808;2023-02-04T06:55:23;95105.41;;;0.36;69.90
24160;BME280;62385;41.594;23.808;2023-02-04T06:57:50;95103.72;;;0.35;69.88
24160;BME280;62385;41.594;23.808;2023-02-04T07:00:15;95105.41;;;0.25;70.38
24160;BME280;62385;41.594;23.808;2023-02-04T07:02:41;95098.63;;;0.33;70.54
24160;BME280;62385;41.594;23.808;2023-02-04T07:05:07;95097.22;;;0.40;70.64
24160;BME280;62385;41.594;23.808;2023-02-04T07:07:33;95096.59;;;0.26;71.12
24160;BME280;62385;41.594;23.808;2023-02-04T07:09:59;95097.31;;;0.39;70.26
24160;BME280;62385;41.594;23.808;2023-02-04T07:12:26;95089.69;;;0.58;70.48
24160;BME280;62385;41.594;23.808;2023-02-04T07:14:51;95086.59;;;0.86;69.13
24160;BME280;62385;41.594;23.808;2023-02-04T07:17:17;95085.47;;;1.11;68.50
24160;BME280;62385;41.594;23.808;2023-02-04T07:19:42;95090.38;;;1.36;68.31
24160;BME280;62385;41.594;23.808;2023-02-04T07:22:08;95085.50;;;1.32;67.03
24160;BME280;62385;41.594;23.808;2023-02-04T07:24:34;95091.13;;;1.16;65.93
24160;BME280;62385;41.594;23.808;2023-02-04T07:26:59;95091.34;;;1.24;66.99
24160;BME280;62385;41.594;23.808;2023-02-04T07:29:25;95096.34;;;1.27;66.45
24160;BME280;62385;41.594;23.808;2023-02-04T07:31:51;95084.03;;;1.39;66.87
24160;BME280;62385;41.594;23.808;2023-02-04T07:34:17;95091.47;;;1.75;66.39
24160;BME280;62385;41.594;23.808;2023-02-04T07:36:44;95088.56;;;1.69;66.06
24160;BME280;62385;41.594;23.808;2023-02-04T07:39:09;95084.84;;;1.71;65.40
24160;BME280;62385;41.594;23.808;2023-02-04T07:41:35;95086.75;;;1.69;64.75
24160;BME280;62385;41.594;23.808;2023-02-04T07:44:01;95080.72;;;1.58;65.14
24160;BME280;62385;41.594;23.808;2023-02-04T07:46:27;95071.84;;;1.49;65.32
24160;BME280;62385;41.594;23.808;2023-02-04T07:48:53;95069.22;;;1.81;65.37
24160;BME280;62385;41.594;23.808;2023-02-04T07:51:18;95068.56;;;1.68;65.76
24160;BME280;62385;41.594;23.808;2023-02-04T07:53:44;95071.44;;;1.85;65.32
24160;BME280;62385;41.594;23.808;2023-02-04T07:56:09;95065.28;;;2.17;65.17
24160;BME280;62385;41.594;23.808;2023-02-04T07:58:35;95063.31;;;2.09;65.47
24160;BME280;62385;41.594;23.808;2023-02-04T08:01:01;95060.34;;;2.23;64.05
24160;BME280;62385;41.594;23.808;2023-02-04T08:03:26;95052.91;;;2.28;63.70
24160;BME280;62385;41.594;23.808;2023-02-04T08:05:52;95041.00;;;2.45;63.18
24160;BME280;62385;41.594;23.808;2023-02-04T08:08:18;95037.53;;;2.35;63.33
24160;BME280;62385;41.594;23.808;2023-02-04T08:10:44;95038.59;;;2.32;63.36
24160;BME280;62385;41.594;23.808;2023-02-04T08:13:10;95043.88;;;2.12;64.00
24160;BME280;62385;41.594;23.808;2023-02-04T08:15:36;95039.81;;;2.19;63.68
24160;BME280;62385;41.594;23.808;2023-02-04T08:18:01;95042.16;;;2.22;64.37
24160;BME280;62385;41.594;23.808;2023-02-04T08:20:27;95038.31;;;2.26;62.34
24160;BME280;62385;41.594;23.808;2023-02-04T08:22:52;95034.13;;;2.14;62.73
24160;BME280;62385;41.594;23.808;2023-02-04T08:25:18;95030.88;;;2.31;62.28
24160;BME280;62385;41.594;23.808;2023-02-04T08:27:44;95031.09;;;2.58;60.99
24160;BME280;62385;41.594;23.808;2023-02-04T08:30:10;95022.97;;;2.52;61.16
24160;BME280;62385;41.594;23.808;2023-02-04T08:32:36;95016.66;;;2.73;62.11
24160;BME280;62385;41.594;23.808;2023-02-04T08:35:02;95018.78;;;2.89;60.94
24160;BME280;62385;41.594;23.808;2023-02-04T08:37:27;95008.97;;;2.82;61.33
24160;BME280;62385;41.594;23.808;2023-02-04T08:39:53;95007.00;;;2.64;61.14
24160;BME280;62385;41.594;23.808;2023-02-04T08:42:20;95011.47;;;2.93;60.29
24160;BME280;62385;41.594;23.808;2023-02-04T08:45:04;95001.22;;;2.70;60.97
24160;BME280;62385;41.594;23.808;2023-02-04T08:47:30;94991.44;;;2.82;60.21
24160;BME280;62385;41.594;23.808;2023-02-04T08:49:55;95000.03;;;2.94;60.32
24160;BME280;62385;41.594;23.808;2023-02-04T08:52:21;94991.44;;;2.72;59.17
24160;BME280;62385;41.594;23.808;2023-02-04T08:54:46;94984.81;;;2.68;58.16
24160;BME280;62385;41.594;23.808;2023-02-04T08:57:12;94982.19;;;2.78;55.56
24160;BME280;62385;41.594;23.808;2023-02-04T08:59:37;94978.88;;;2.95;55.65
24160;BME280;62385;41.594;23.808;2023-02-04T09:02:22;94979.03;;;2.94;56.19
24160;BME280;62385;41.594;23.808;2023-02-04T09:04:48;94983.44;;;3.12;56.25
24160;BME280;62385;41.594;23.808;2023-02-04T09:07:14;94970.19;;;3.43;56.06
24160;BME280;62385;41.594;23.808;2023-02-04T09:09:41;94960.34;;;3.54;55.39
24160;BME280;62385;41.594;23.808;2023-02-04T09:12:06;94950.94;;;3.61;54.94
24160;BME280;62385;41.594;23.808;2023-02-04T09:14:32;94963.75;;;3.74;55.08
24160;BME280;62385;41.594;23.808;2023-02-04T09:16:57;94963.81;;;3.45;55.64
24160;BME280;62385;41.594;23.808;2023-02-04T09:19:23;94960.06;;;3.57;55.44
24160;BME280;62385;41.594;23.808;2023-02-04T09:21:52;94954.56;;;3.51;56.84
24160;BME280;62385;41.594;23.808;2023-02-04T09:24:18;94955.25;;;3.99;56.49
24160;BME280;62385;41.594;23.808;2023-02-04T09:26:44;94950.47;;;4.22;56.07
24160;BME280;62385;41.594;23.808;2023-02-04T09:29:10;94933.81;;;4.04;55.44
24160;BME280;62385;41.594;23.808;2023-02-04T09:31:36;94941.16;;;4.28;55.30
24160;BME280;62385;41.594;23.808;2023-02-04T09:34:03;94935.53;;;4.50;54.89
24160;BME280;62385;41.594;23.808;2023-02-04T09:36:29;94921.28;;;4.88;54.33
24160;BME280;62385;41.594;23.808;2023-02-04T09:38:57;94912.19;;;4.82;54.32
24160;BME280;62385;41.594;23.808;2023-02-04T09:41:22;94899.88;;;5.00;54.82
24160;BME280;62385;41.594;23.808;2023-02-04T09:43:48;94903.66;;;4.80;56.08
24160;BME280;62385;41.594;23.808;2023-02-04T09:46:21;94892.34;;;4.70;57.08
24160;BME280;62385;41.594;23.808;2023-02-04T09:48:47;94886.59;;;4.84;57.14
24160;BME280;62385;41.594;23.808;2023-02-04T09:51:17;94882.22;;;4.75;58.82
24160;BME280;62385;41.594;23.808;2023-02-04T09:53:46;94869.59;;;4.79;58.56
24160;BME280;62385;41.594;23.808;2023-02-04T09:56:12;94869.56;;;5.14;58.27
24160;BME280;62385;41.594;23.808;2023-02-04T09:58:39;94862.78;;;5.29;58.33
24160;BME280;62385;41.594;23.808;2023-02-04T10:01:14;94859.63;;;5.51;57.20
24160;BME280;62385;41.594;23.808;2023-02-04T10:03:44;94833.94;;;5.79;54.94
24160;BME280;62385;41.594;23.808;2023-02-04T10:06:17;94840.00;;;5.80;54.35
24160;BME280;62385;41.594;23.808;2023-02-04T10:08:45;94841.41;;;5.58;52.44
24160;BME280;62385;41.594;23.808;2023-02-04T10:11:12;94822.72;;;6.11;51.97
24160;BME280;62385;41.594;23.808;2023-02-04T10:13:47;94839.84;;;6.81;46.65
24160;BME280;62385;41.594;23.808;2023-02-04T10:16:17;94813.59;;;7.36;45.63
24160;BME280;62385;41.594;23.808;2023-02-04T10:18:44;94809.00;;;7.06;44.93
24160;BME280;62385;41.594;23.808;2023-02-04T10:21:16;94828.97;;;7.01;44.33
24160;BME280;62385;41.594;23.808;2023-02-04T10:23:44;94812.28;;;7.08;44.31
24160;BME280;62385;41.594;23.808;2023-02-04T10:26:11;94792.84;;;7.09;44.17
24160;BME280;62385;41.594;23.808;2023-02-04T10:28:37;94811.00;;;7.20;44.33
24160;BME280;62385;41.594;23.808;2023-02-04T10:31:05;94810.66;;;7.07;44.01
24160;BME280;62385;41.594;23.808;2023-02-04T10:33:34;94790.56;;;6.98;44.19
24160;BME280;62385;41.594;23.808;2023-02-04T10:36:03;94786.91;;;7.15;44.51
24160;BME280;62385;41.594;23.808;2023-02-04T10:38:31;94783.44;;;7.23;43.85
24160;BME280;62385;41.594;23.808;2023-02-04T10:41:04;94781.78;;;7.22;43.82
24160;BME280;62385;41.594;23.808;2023-02-04T10:43:30;94779.31;;;7.20;45.25
24160;BME280;62385;41.594;23.808;2023-02-04T10:46:03;94772.50;;;7.42;44.38
24160;BME280;62385;41.594;23.808;2023-02-04T10:48:29;94787.56;;;7.17;44.44
24160;BME280;62385;41.594;23.808;2023-02-04T10:50:56;94777.16;;;7.24;45.03
24160;BME280;62385;41.594;23.808;2023-02-04T10:53:22;94779.94;;;7.30;44.39
24160;BME280;62385;41.594;23.808;2023-02-04T10:56:15;94762.28;;;7.39;43.60
24160;BME280;62385;41.594;23.808;2023-02-04T10:58:42;94758.13;;;7.45;44.41
24160;BME280;62385;41.594;23.808;2023-02-04T11:01:12;94757.44;;;7.51;43.89
24160;BME280;62385;41.594;23.808;2023-02-04T11:03:39;94773.19;;;7.36;43.38
24160;BME280;62385;41.594;23.808;2023-02-04T11:06:13;94772.03;;;7.22;44.29
24160;BME280;62385;41.594;23.808;2023-02-04T11:08:42;94750.56;;;7.25;45.24
24160;BME280;62385;41.594;23.808;2023-02-04T11:11:18;94762.66;;;7.20;44.41
24160;BME280;62385;41.594;23.808;2023-02-04T11:18:53;94759.28;;;7.42;44.02
24160;BME280;62385;41.594;23.808;2023-02-04T11:23:47;94723.88;;;7.28;43.74
24160;BME280;62385;41.594;23.808;2023-02-04T11:26:17;94729.16;;;7.20;44.00
24160;BME280;62385;41.594;23.808;2023-02-04T11:42:00;94712.31;;;7.21;43.84
24160;BME280;62385;41.594;23.808;2023-02-04T11:44:26;94717.09;;;7.26;42.99
24160;BME280;62385;41.594;23.808;2023-02-04T11:46:52;94705.78;;;7.56;43.42
24160;BME280;62385;41.594;23.808;2023-02-04T11:49:20;94719.09;;;7.16;43.74
24160;BME280;62385;41.594;23.808;2023-02-04T11:51:49;94723.47;;;7.48;43.00
24160;BME280;62385;41.594;23.808;2023-02-04T11:54:17;94693.38;;;7.57;43.70
24160;BME280;62385;41.594;23.808;2023-02-04T11:56:46;94684.91;;;7.30;44.06
24160;BME280;62385;41.594;23.808;2023-02-04T11:59:13;94680.97;;;7.18;44.09
24160;BME280;62385;41.594;23.808;2023-02-04T12:01:39;94689.59;;;7.12;44.48
24160;BME280;62385;41.594;23.808;2023-02-04T12:04:07;94683.31;;;7.13;44.64
24160;BME280;62385;41.594;23.808;2023-02-04T12:06:59;94685.63;;;7.00;44.40
24160;BME280;62385;41.594;23.808;2023-02-04T12:09:27;94681.34;;;7.15;44.20
24160;BME280;62385;41.594;23.808;2023-02-04T12:12:01;94686.41;;;7.17;44.49
24160;BME280;62385;41.594;23.808;2023-02-04T12:14:30;94689.56;;;7.20;43.75
24160;BME280;62385;41.594;23.808;2023-02-04T12:16:56;94697.16;;;7.15;44.51
24160;BME280;62385;41.594;23.808;2023-02-04T12:19:23;94689.22;;;7.23;44.46
24160;BME280;62385;41.594;23.808;2023-02-04T12:21:49;94694.88;;;7.12;43.76
24160;BME280;62385;41.594;23.808;2023-02-04T12:24:15;94694.19;;;7.18;43.58
24160;BME280;62385;41.594;23.808;2023-02-04T12:26:40;94702.22;;;7.25;43.28
24160;BME280;62385;41.594;23.808;2023-02-04T12:29:07;94687.47;;;7.47;43.21
24160;BME280;62385;41.594;23.808;2023-02-04T12:31:33;94699.13;;;7.21;43.68
24160;BME280;62385;41.594;23.808;2023-02-04T12:34:00;94681.16;;;7.56;43.67
24160;BME280;62385;41.594;23.808;2023-02-04T12:36:26;94691.28;;;7.44;42.79
24160;BME280;62385;41.594;23.808;2023-02-04T12:38:55;94674.03;;;7.64;41.99
24160;BME280;62385;41.594;23.808;2023-02-04T12:41:23;94668.25;;;7.69;41.58
24160;BME280;62385;41.594;23.808;2023-02-04T12:43:49;94677.47;;;7.73;41.95
24160;BME280;62385;41.594;23.808;2023-02-04T12:46:15;94685.16;;;7.52;41.90
24160;BME280;62385;41.594;23.808;2023-02-04T12:48:41;94676.47;;;7.74;42.37
24160;BME280;62385;41.594;23.808;2023-02-04T12:51:08;94660.72;;;7.80;42.24
24160;BME280;62385;41.594;23.808;2023-02-04T12:53:35;94665.75;;;7.67;41.87
24160;BME280;62385;41.594;23.808;2023-02-04T12:56:00;94680.19;;;7.57;41.17
24160;BME280;62385;41.594;23.808;2023-02-04T12:58:26;94681.53;;;7.53;42.42
24160;BME280;62385;41.594;23.808;2023-02-04T13:00:52;94694.41;;;7.48;42.24
24160;BME280;62385;41.594;23.808;2023-02-04T13:03:17;94667.38;;;7.37;42.83
24160;BME280;62385;41.594;23.808;2023-02-04T13:05:43;94665.56;;;7.38;42.25
24160;BME280;62385;41.594;23.808;2023-02-04T13:08:09;94670.47;;;7.49;42.00
24160;BME280;62385;41.594;23.808;2023-02-04T13:10:34;94677.25;;;7.43;41.29
24160;BME280;62385;41.594;23.808;2023-02-04T13:13:00;94684.56;;;7.33;41.94
24160;BME280;62385;41.594;23.808;2023-02-04T13:15:26;94679.66;;;7.61;42.63